Time;durP1;ratioP1;P1;durP2;ratioP2;P2;SDS_P1;SDS_P2;PMS_P1;PMS_P2;Temp;Humidity;BMP_temperature;BMP_pressure;BME280_temperature;BME280_humidity;BME280_pressure;Samples;Min_cycle;Max_cycle;Signal;HPM_P1;HPM_P2
2023/01/07 00:01:34;;;;;;;4.70;4.50;;;11.30;99.90;;;;;;5051934;28;20725;-65
2023/01/07 00:04:01;;;;;;;5.10;4.70;;;11.40;99.90;;;;;;5027930;28;20506;-65
2023/01/07 00:06:29;;;;;;;4.43;4.23;;;11.40;99.90;;;;;;5039600;28;20182;-65
2023/01/07 00:08:56;;;;;;;4.20;4.00;;;11.40;99.90;;;;;;5049394;28;20278;-65
2023/01/07 00:11:27;;;;;;;4.23;4.03;;;11.50;99.90;;;;;;5041115;28;20189;-64
2023/01/07 00:13:54;;;;;;;4.40;4.20;;;11.40;99.90;;;;;;5043751;28;20674;-63
2023/01/07 00:16:22;;;;;;;4.57;4.37;;;11.40;99.90;;;;;;5045322;28;20175;-64
2023/01/07 00:18:50;;;;;;;4.87;4.67;;;11.40;99.90;;;;;;5052509;28;20199;-64
2023/01/07 00:21:17;;;;;;;5.07;4.87;;;11.40;99.90;;;;;;5052911;28;20221;-64
2023/01/07 00:23:44;;;;;;;4.50;4.30;;;11.40;99.90;;;;;;5052069;28;20183;-64
2023/01/07 00:26:16;;;;;;;4.80;4.60;;;11.30;99.90;;;;;;5053323;28;20195;-64
2023/01/07 00:28:44;;;;;;;4.40;4.10;;;11.30;99.90;;;;;;5052406;28;20191;-64
2023/01/07 00:31:18;;;;;;;4.87;4.67;;;11.30;99.90;;;;;;5052806;28;20190;-64
2023/01/07 00:36:20;;;;;;;4.40;4.20;;;11.20;99.90;;;;;;5035009;28;20187;-64
2023/01/07 00:38:47;;;;;;;4.23;4.03;;;11.20;99.90;;;;;;5042514;28;20234;-64
2023/01/07 00:41:13;;;;;;;4.90;4.70;;;11.10;99.90;;;;;;5052510;28;20175;-64
2023/01/07 00:43:38;;;;;;;4.90;4.60;;;11.10;99.90;;;;;;5052203;28;20758;-64
2023/01/07 00:46:04;;;;;;;4.60;4.40;;;11.10;99.90;;;;;;5052908;28;20199;-64
2023/01/07 00:48:30;;;;;;;4.67;4.47;;;11.10;99.90;;;;;;5049572;28;20644;-64
2023/01/07 00:50:55;;;;;;;4.50;4.30;;;11.10;99.90;;;;;;5051431;28;20166;-64
2023/01/07 00:53:21;;;;;;;4.47;4.27;;;11.10;99.90;;;;;;5047053;28;20205;-64
2023/01/07 00:55:48;;;;;;;4.40;4.20;;;11.10;99.90;;;;;;5052486;28;20174;-64
2023/01/07 00:58:18;;;;;;;4.50;4.30;;;11.10;99.90;;;;;;5046197;28;20264;-64
2023/01/07 01:00:44;;;;;;;4.70;4.50;;;11.10;99.90;;;;;;5052243;28;20549;-64
2023/01/07 01:03:11;;;;;;;4.70;4.50;;;11.00;99.90;;;;;;5051455;28;20207;-64
2023/01/07 01:05:36;;;;;;;4.60;4.40;;;11.00;99.90;;;;;;5052002;28;20194;-64
2023/01/07 01:08:02;;;;;;;4.80;4.50;;;11.00;99.90;;;;;;5051365;28;20263;-64
2023/01/07 01:10:28;;;;;;;4.53;4.33;;;11.00;99.90;;;;;;5052278;28;20659;-64
2023/01/07 01:12:53;;;;;;;4.90;4.50;;;10.90;99.90;;;;;;5050861;28;20217;-64
2023/01/07 01:15:19;;;;;;;4.90;4.63;;;10.90;99.90;;;;;;5051618;28;20201;-64
2023/01/07 01:17:45;;;;;;;4.97;4.77;;;10.90;99.90;;;;;;5043400;28;20266;-64
2023/01/07 01:20:13;;;;;;;4.60;4.40;;;10.80;99.90;;;;;;5051226;28;20743;-64
2023/01/07 01:22:39;;;;;;;5.20;5.00;;;10.80;99.90;;;;;;5051768;28;20203;-64
2023/01/07 01:25:05;;;;;;;5.63;5.43;;;10.80;99.90;;;;;;5052270;28;20213;-64
2023/01/07 01:27:31;;;;;;;5.50;5.30;;;10.80;99.90;;;;;;5051547;28;20182;-64
2023/01/07 01:29:58;;;;;;;5.10;4.90;;;10.80;99.90;;;;;;5051913;28;20175;-64
2023/01/07 01:32:23;;;;;;;4.40;4.20;;;10.70;99.90;;;;;;5050311;28;20246;-64
2023/01/07 01:34:49;;;;;;;4.90;4.70;;;10.70;99.90;;;;;;5043235;28;20214;-64
2023/01/07 01:37:15;;;;;;;6.07;5.00;;;10.60;99.90;;;;;;5049819;28;20175;-64
2023/01/07 01:39:40;;;;;;;5.00;4.80;;;10.60;99.90;;;;;;5051457;28;20202;-64
2023/01/07 01:42:12;;;;;;;4.73;4.53;;;10.50;99.90;;;;;;5051260;28;20225;-64
2023/01/07 01:44:58;;;;;;;4.93;4.73;;;10.40;99.90;;;;;;5051726;28;20214;-64
2023/01/07 01:47:45;;;;;;;5.00;4.80;;;10.30;99.90;;;;;;5051149;28;20636;-64
2023/01/07 01:50:11;;;;;;;5.10;4.90;;;10.20;99.90;;;;;;5050776;28;20183;-65
2023/01/07 01:52:45;;;;;;;5.47;5.27;;;10.10;99.90;;;;;;5046754;28;20202;-64
2023/01/07 01:55:15;;;;;;;5.37;5.17;;;10.00;99.90;;;;;;5048230;28;20197;-65
2023/01/07 01:57:41;;;;;;;5.90;5.70;;;10.00;99.90;;;;;;5047476;28;20183;-64
2023/01/07 02:00:08;;;;;;;6.00;5.73;;;9.90;99.90;;;;;;5048739;28;20195;-65
2023/01/07 02:02:44;;;;;;;6.23;5.93;;;9.90;99.90;;;;;;5050896;28;20676;-64
2023/01/07 02:05:10;;;;;;;5.00;4.80;;;9.80;99.90;;;;;;5050182;28;20166;-64
2023/01/07 02:07:36;;;;;;;6.67;6.37;;;9.70;99.90;;;;;;5046956;28;20214;-64
2023/01/07 02:10:14;;;;;;;5.23;5.03;;;9.70;99.90;;;;;;5031525;28;20577;-65
2023/01/07 02:12:46;;;;;;;6.60;6.30;;;9.60;99.90;;;;;;5050980;28;20221;-64
2023/01/07 02:15:23;;;;;;;6.63;5.47;;;9.50;99.90;;;;;;5050077;28;20183;-64
2023/01/07 02:17:49;;;;;;;5.33;5.13;;;9.50;99.90;;;;;;5044219;28;20190;-64
2023/01/07 02:20:17;;;;;;;5.50;5.20;;;9.50;99.90;;;;;;5048820;28;20535;-64
2023/01/07 02:23:05;;;;;;;5.20;5.00;;;9.50;99.90;;;;;;5046749;28;20289;-64
2023/01/07 02:26:09;;;;;;;4.73;4.53;;;9.50;99.90;;;;;;5035919;28;20171;-64
2023/01/07 02:29:16;;;;;;;5.20;5.00;;;9.50;99.90;;;;;;5009390;28;20179;-65
2023/01/07 02:32:00;;;;;;;5.07;4.77;;;9.50;99.90;;;;;;5019977;28;20214;-65
2023/01/07 02:34:58;;;;;;;5.40;5.20;;;9.40;99.90;;;;;;5050236;28;20206;-64
2023/01/07 02:37:43;;;;;;;5.07;4.87;;;9.40;99.90;;;;;;5046693;28;20209;-64
2023/01/07 02:40:21;;;;;;;5.20;5.00;;;9.40;99.90;;;;;;5049788;28;20210;-64
2023/01/07 02:43:01;;;;;;;5.00;4.80;;;9.40;99.90;;;;;;5050566;28;20203;-64
2023/01/07 02:45:32;;;;;;;4.80;4.60;;;9.40;99.90;;;;;;5047305;28;20180;-64
2023/01/07 02:48:11;;;;;;;6.17;5.87;;;9.30;99.90;;;;;;5049170;28;20225;-64
2023/01/07 02:50:37;;;;;;;5.10;4.90;;;9.30;99.90;;;;;;5050682;28;20175;-65
2023/01/07 02:53:04;;;;;;;5.40;5.20;;;9.30;99.90;;;;;;5050842;28;20203;-64
2023/01/07 02:55:38;;;;;;;5.07;4.83;;;9.30;99.90;;;;;;5047209;28;20225;-64
2023/01/07 02:58:13;;;;;;;5.40;5.20;;;9.30;99.90;;;;;;5048517;28;20268;-64
2023/01/07 03:00:44;;;;;;;5.27;5.00;;;9.20;99.90;;;;;;5042007;28;20256;-64
2023/01/07 03:03:41;;;;;;;4.80;4.60;;;9.30;99.90;;;;;;5049525;28;20202;-65
2023/01/07 03:06:24;;;;;;;5.17;4.97;;;9.20;99.90;;;;;;5033066;28;20536;-65
2023/01/07 03:09:16;;;;;;;5.83;5.60;;;9.20;99.90;;;;;;5050345;28;20183;-65
2023/01/07 03:12:23;;;;;;;6.17;5.87;;;9.10;99.90;;;;;;5049268;28;20206;-65
2023/01/07 03:14:54;;;;;;;5.40;5.10;;;9.10;99.90;;;;;;5033206;28;20207;-65
2023/01/07 03:17:29;;;;;;;5.57;5.30;;;9.10;99.90;;;;;;5052580;28;20175;-64
2023/01/07 03:19:58;;;;;;;6.07;5.77;;;9.10;99.90;;;;;;5053450;28;20210;-64
2023/01/07 03:22:26;;;;;;;6.13;5.83;;;9.10;99.90;;;;;;5054434;28;20270;-65
2023/01/07 03:24:55;;;;;;;6.20;5.90;;;9.20;99.90;;;;;;5054201;28;20178;-64
2023/01/07 03:27:22;;;;;;;6.03;5.73;;;9.30;99.90;;;;;;5053933;28;20167;-65
2023/01/07 03:29:50;;;;;;;8.13;5.73;;;9.30;99.90;;;;;;5052357;28;20202;-65
2023/01/07 03:32:40;;;;;;;5.90;5.70;;;9.30;99.90;;;;;;5053606;28;20210;-65
2023/01/07 03:35:07;;;;;;;6.70;6.40;;;9.30;99.90;;;;;;5049762;28;20265;-65
2023/01/07 03:37:33;;;;;;;6.20;5.90;;;9.30;99.90;;;;;;5054159;28;20179;-64
2023/01/07 03:40:02;;;;;;;6.03;5.73;;;9.30;99.90;;;;;;5044333;28;20210;-64
2023/01/07 03:42:39;;;;;;;6.33;6.03;;;9.30;99.90;;;;;;5053674;28;20205;-65
2023/01/07 03:45:19;;;;;;;6.47;5.97;;;9.30;99.90;;;;;;5054128;28;20178;-64
2023/01/07 03:47:48;;;;;;;5.67;5.47;;;9.30;99.90;;;;;;5052788;28;20204;-65
2023/01/07 03:50:14;;;;;;;5.70;5.50;;;9.20;99.90;;;;;;5033847;28;20171;-64
2023/01/07 03:52:40;;;;;;;6.13;5.80;;;9.30;99.90;;;;;;5051424;28;20202;-65
2023/01/07 03:55:06;;;;;;;6.00;5.60;;;9.30;99.90;;;;;;5045098;28;20340;-64
2023/01/07 03:57:32;;;;;;;5.87;5.63;;;9.30;99.90;;;;;;5049683;28;20636;-65
2023/01/07 03:59:58;;;;;;;6.03;5.73;;;9.20;99.90;;;;;;5042836;28;20218;-64
2023/01/07 04:02:24;;;;;;;5.80;5.60;;;9.20;99.90;;;;;;5053232;28;20218;-64
2023/01/07 04:04:50;;;;;;;5.63;5.33;;;9.20;99.90;;;;;;5052481;28;20503;-64
2023/01/07 04:07:15;;;;;;;5.80;5.50;;;9.20;99.90;;;;;;5053447;28;20174;-64
2023/01/07 04:09:41;;;;;;;5.57;5.27;;;9.30;99.90;;;;;;5052896;28;20272;-65
2023/01/07 04:12:07;;;;;;;5.20;5.00;;;9.30;99.90;;;;;;5051506;28;20234;-65
2023/01/07 04:14:32;;;;;;;5.10;4.90;;;9.40;99.90;;;;;;5045595;28;20546;-65
2023/01/07 04:16:58;;;;;;;5.10;4.90;;;9.40;99.90;;;;;;5051612;28;20273;-65
2023/01/07 04:19:23;;;;;;;5.00;4.80;;;9.60;99.90;;;;;;5053236;28;20225;-65
2023/01/07 04:21:49;;;;;;;5.13;4.83;;;9.70;99.90;;;;;;5051611;28;20289;-63
2023/01/07 04:24:15;;;;;;;5.10;4.90;;;9.80;99.90;;;;;;5051104;28;20175;-65
2023/01/07 04:26:40;;;;;;;5.60;5.30;;;9.90;99.90;;;;;;5051872;28;20236;-65
2023/01/07 04:29:06;;;;;;;5.10;4.90;;;10.00;99.90;;;;;;5053214;28;20167;-65
2023/01/07 04:31:32;;;;;;;5.30;5.00;;;10.20;99.90;;;;;;5050041;28;20257;-65
2023/01/07 04:33:57;;;;;;;5.33;5.10;;;10.30;99.90;;;;;;5052771;28;20225;-65
2023/01/07 04:36:23;;;;;;;5.17;4.87;;;10.40;99.90;;;;;;5044272;28;20198;-65
2023/01/07 04:38:48;;;;;;;5.10;4.90;;;10.50;99.90;;;;;;5052692;28;20206;-65
2023/01/07 04:41:14;;;;;;;5.20;5.00;;;10.50;99.90;;;;;;5044013;28;20250;-64
2023/01/07 04:43:40;;;;;;;5.63;5.33;;;10.60;99.90;;;;;;5052506;28;20664;-64
2023/01/07 04:46:05;;;;;;;4.90;4.70;;;10.60;99.90;;;;;;5044023;28;20187;-65
2023/01/07 04:48:31;;;;;;;5.43;5.07;;;10.60;99.90;;;;;;5052968;28;20261;-64
2023/01/07 04:50:57;;;;;;;5.07;4.87;;;10.60;99.90;;;;;;5045031;28;20254;-64
2023/01/07 04:53:22;;;;;;;5.30;5.00;;;10.60;99.90;;;;;;5051283;28;20218;-64
2023/01/07 04:55:48;;;;;;;5.83;5.20;;;10.70;99.90;;;;;;5051823;28;20190;-65
2023/01/07 04:58:14;;;;;;;5.23;4.93;;;10.70;99.90;;;;;;5043224;28;20191;-64
2023/01/07 05:00:39;;;;;;;5.00;4.80;;;10.70;99.90;;;;;;5035023;28;20291;-65
2023/01/07 05:03:05;;;;;;;5.40;5.10;;;10.70;99.90;;;;;;5040527;28;20203;-65
2023/01/07 05:05:31;;;;;;;5.10;4.90;;;10.60;99.90;;;;;;5043506;28;20179;-65
2023/01/07 05:07:56;;;;;;;5.13;4.93;;;10.70;99.90;;;;;;5051036;28;20179;-64
2023/01/07 05:10:22;;;;;;;5.93;5.53;;;10.60;99.90;;;;;;5050961;28;20213;-64
2023/01/07 05:12:48;;;;;;;5.07;4.87;;;10.60;99.90;;;;;;5051646;28;20698;-65
2023/01/07 05:15:14;;;;;;;5.73;5.33;;;10.70;99.90;;;;;;5051447;28;20187;-64
2023/01/07 05:17:39;;;;;;;5.83;5.47;;;10.70;99.90;;;;;;5052160;28;20525;-64
2023/01/07 05:20:07;;;;;;;6.00;5.70;;;10.80;99.90;;;;;;5051298;28;20218;-65
2023/01/07 05:22:32;;;;;;;5.67;5.37;;;10.80;99.90;;;;;;5051356;28;20234;-64
2023/01/07 05:24:58;;;;;;;5.37;5.17;;;10.80;99.90;;;;;;5051768;28;20218;-65
2023/01/07 05:27:23;;;;;;;5.27;5.03;;;10.80;99.90;;;;;;5051260;28;20250;-65
2023/01/07 05:29:49;;;;;;;6.10;5.80;;;10.80;99.90;;;;;;5045663;28;20182;-64
2023/01/07 05:32:15;;;;;;;4.80;4.60;;;10.80;99.90;;;;;;5040956;28;20211;-64
2023/01/07 05:34:40;;;;;;;4.67;4.43;;;10.80;99.90;;;;;;5051961;28;20173;-65
2023/01/07 05:37:06;;;;;;;4.60;4.40;;;10.80;99.90;;;;;;5051322;28;20228;-64
2023/01/07 05:39:31;;;;;;;4.90;4.70;;;10.80;99.90;;;;;;5051649;28;20203;-64
2023/01/07 05:41:57;;;;;;;5.43;5.20;;;10.80;99.90;;;;;;5049049;28;20293;-64
2023/01/07 05:44:23;;;;;;;4.87;4.60;;;10.80;99.90;;;;;;5049737;28;20224;-64
2023/01/07 05:46:49;;;;;;;4.63;4.43;;;10.80;99.90;;;;;;5050637;28;20652;-65
2023/01/07 05:49:14;;;;;;;5.70;5.50;;;10.80;99.90;;;;;;5049789;28;20265;-65
2023/01/07 05:51:40;;;;;;;6.70;6.40;;;10.70;99.90;;;;;;5048201;28;20579;-65
2023/01/07 05:54:06;;;;;;;7.03;6.67;;;10.80;99.90;;;;;;5050639;28;20237;-64
2023/01/07 05:56:31;;;;;;;7.63;7.13;;;10.70;99.90;;;;;;5042310;28;20706;-64
2023/01/07 05:58:57;;;;;;;6.70;6.40;;;10.70;99.90;;;;;;5051400;28;20198;-65
2023/01/07 06:01:23;;;;;;;7.07;6.77;;;10.60;99.90;;;;;;5049184;28;20183;-64
2023/01/07 06:03:48;;;;;;;6.97;6.67;;;10.60;99.90;;;;;;5050046;28;20552;-64
2023/01/07 06:06:14;;;;;;;7.43;7.03;;;10.50;99.90;;;;;;5051474;28;20275;-64
2023/01/07 06:08:39;;;;;;;7.33;6.93;;;10.50;99.90;;;;;;5051896;28;20175;-64
2023/01/07 06:11:06;;;;;;;5.70;5.47;;;10.50;99.90;;;;;;5050935;28;20186;-64
2023/01/07 06:13:32;;;;;;;5.20;5.00;;;10.40;99.90;;;;;;5051189;28;20691;-64
2023/01/07 06:16:06;;;;;;;6.00;5.70;;;10.40;99.90;;;;;;5050014;28;20178;-64
2023/01/07 06:18:33;;;;;;;5.63;5.27;;;10.40;99.90;;;;;;5051453;28;20171;-64
2023/01/07 06:20:58;;;;;;;4.93;4.73;;;10.40;99.90;;;;;;5050763;28;20187;-64
2023/01/07 06:23:24;;;;;;;5.10;4.80;;;10.30;99.90;;;;;;5051364;28;20193;-64
2023/01/07 06:25:50;;;;;;;5.57;5.37;;;10.40;99.90;;;;;;5051693;28;20637;-64
2023/01/07 06:28:15;;;;;;;5.20;4.97;;;10.40;99.90;;;;;;5050984;28;20179;-64
2023/01/07 06:30:44;;;;;;;8.87;5.27;;;10.40;99.90;;;;;;5050181;28;20171;-64
2023/01/07 06:33:11;;;;;;;5.70;5.50;;;10.40;99.90;;;;;;5049708;28;20214;-63
2023/01/07 06:35:36;;;;;;;6.40;6.00;;;10.40;99.90;;;;;;5050939;28;20190;-64
2023/01/07 06:38:02;;;;;;;5.43;5.17;;;10.50;99.90;;;;;;5042658;28;20262;-64
2023/01/07 06:40:27;;;;;;;5.30;5.00;;;10.40;99.90;;;;;;5043936;28;20203;-64
2023/01/07 06:42:53;;;;;;;5.87;5.47;;;10.50;99.90;;;;;;5043386;28;20240;-64
2023/01/07 06:45:19;;;;;;;7.10;5.40;;;10.50;99.90;;;;;;5049029;28;20179;-64
2023/01/07 06:47:44;;;;;;;5.43;5.13;;;10.50;99.90;;;;;;5048220;28;20182;-65
2023/01/07 06:50:10;;;;;;;5.33;5.13;;;10.50;99.90;;;;;;5042501;28;20273;-65
2023/01/07 06:52:36;;;;;;;5.13;4.80;;;10.50;99.90;;;;;;5036145;28;20226;-64
2023/01/07 06:55:02;;;;;;;5.20;5.00;;;10.50;99.90;;;;;;5048090;28;20190;-65
2023/01/07 06:57:28;;;;;;;5.97;5.57;;;10.50;99.90;;;;;;5040548;28;20232;-65
2023/01/07 06:59:54;;;;;;;5.37;4.97;;;10.50;99.90;;;;;;5052650;28;20317;-64
2023/01/07 07:02:22;;;;;;;4.90;4.60;;;10.50;99.90;;;;;;5048842;28;20278;-65
2023/01/07 07:04:48;;;;;;;4.80;4.60;;;10.50;99.90;;;;;;5043048;28;20175;-65
2023/01/07 07:07:14;;;;;;;5.07;4.87;;;10.50;99.90;;;;;;5045070;28;20179;-65
2023/01/07 07:09:40;;;;;;;5.40;5.20;;;10.50;99.90;;;;;;5054249;28;20174;-65
2023/01/07 07:12:06;;;;;;;5.13;4.80;;;10.50;99.90;;;;;;5044239;28;20209;-65
2023/01/07 07:14:33;;;;;;;6.40;4.60;;;10.50;99.90;;;;;;5046508;28;20205;-65
2023/01/07 07:16:58;;;;;;;6.37;6.07;;;10.50;99.90;;;;;;5039389;28;20664;-64
2023/01/07 07:19:24;;;;;;;5.03;4.83;;;10.50;99.90;;;;;;5045545;28;20194;-64
2023/01/07 07:21:50;;;;;;;6.67;6.37;;;10.60;99.90;;;;;;5047664;28;20202;-64
2023/01/07 07:24:15;;;;;;;6.20;5.70;;;10.50;99.90;;;;;;5051386;28;20183;-64
2023/01/07 07:26:41;;;;;;;5.77;5.47;;;10.50;99.90;;;;;;5049366;28;20171;-65
2023/01/07 07:29:08;;;;;;;6.40;6.10;;;10.50;99.90;;;;;;5048707;28;20179;-64
2023/01/07 07:31:34;;;;;;;6.33;6.03;;;10.60;99.90;;;;;;5052850;28;20214;-65
2023/01/07 07:33:59;;;;;;;5.20;5.00;;;10.60;99.90;;;;;;5052111;28;20241;-64
2023/01/07 07:36:25;;;;;;;5.70;5.50;;;10.60;99.90;;;;;;5045418;28;20185;-65
2023/01/07 07:38:50;;;;;;;5.30;5.10;;;10.60;99.90;;;;;;5050728;28;20598;-65
2023/01/07 07:41:16;;;;;;;5.70;5.27;;;10.70;99.90;;;;;;5046953;28;20171;-64
2023/01/07 07:43:41;;;;;;;5.10;4.80;;;10.70;99.90;;;;;;5046646;28;20219;-65
2023/01/07 07:46:07;;;;;;;5.53;5.17;;;10.70;99.90;;;;;;5048502;28;20798;-64
2023/01/07 07:48:33;;;;;;;4.80;4.60;;;10.70;99.90;;;;;;5053591;28;20175;-64
2023/01/07 07:50:58;;;;;;;5.23;4.93;;;10.70;99.90;;;;;;5052603;28;20683;-64
2023/01/07 07:53:24;;;;;;;5.10;4.80;;;10.70;99.90;;;;;;5052963;28;20206;-64
2023/01/07 07:55:52;;;;;;;5.63;5.33;;;10.70;99.90;;;;;;5052309;28;20610;-65
2023/01/07 07:58:18;;;;;;;5.43;5.23;;;10.70;99.90;;;;;;5052497;28;20248;-65
2023/01/07 08:00:43;;;;;;;5.20;5.00;;;10.70;99.90;;;;;;5043199;28;20203;-65
2023/01/07 08:03:10;;;;;;;5.90;5.43;;;10.70;99.90;;;;;;5046596;28;20205;-64
2023/01/07 08:05:40;;;;;;;5.70;5.20;;;10.60;99.90;;;;;;5050146;28;20681;-65
2023/01/07 08:08:08;;;;;;;5.37;5.07;;;10.60;99.90;;;;;;5048054;28;20186;-65
2023/01/07 08:10:34;;;;;;;5.90;5.60;;;10.60;99.90;;;;;;5050723;28;20668;-64
2023/01/07 08:13:00;;;;;;;6.87;6.20;;;10.50;99.90;;;;;;5038414;28;20207;-65
2023/01/07 08:15:26;;;;;;;5.90;5.60;;;10.50;99.90;;;;;;5052403;28;20525;-64
2023/01/07 08:18:06;;;;;;;5.33;5.03;;;10.50;99.90;;;;;;5045408;28;20187;-64
2023/01/07 08:20:33;;;;;;;5.50;5.03;;;10.50;99.90;;;;;;5044566;28;20620;-65
2023/01/07 08:23:00;;;;;;;5.83;5.43;;;10.50;99.90;;;;;;5052059;28;20206;-63
2023/01/07 08:25:27;;;;;;;6.17;5.77;;;10.50;99.90;;;;;;5040591;28;20175;-64
2023/01/07 08:27:54;;;;;;;5.83;5.53;;;10.50;99.90;;;;;;5042949;28;20175;-64
2023/01/07 08:30:20;;;;;;;6.63;6.23;;;10.50;99.90;;;;;;5042838;28;20212;-64
2023/01/07 08:32:46;;;;;;;5.87;5.57;;;10.50;99.90;;;;;;5050334;28;20227;-64
2023/01/07 08:35:12;;;;;;;5.70;5.07;;;10.50;99.90;;;;;;5043875;28;20179;-64
2023/01/07 08:37:37;;;;;;;5.80;5.50;;;10.50;99.90;;;;;;5043482;28;20191;-64
2023/01/07 08:40:04;;;;;;;5.50;5.30;;;10.50;99.90;;;;;;5038024;28;20265;-64
2023/01/07 08:42:30;;;;;;;5.27;5.07;;;10.50;99.90;;;;;;5048475;28;20625;-64
2023/01/07 08:44:55;;;;;;;6.23;5.90;;;10.50;99.90;;;;;;5043599;28;20336;-64
2023/01/07 08:47:21;;;;;;;6.43;6.13;;;10.50;99.90;;;;;;5049811;28;20202;-65
2023/01/07 08:49:47;;;;;;;5.83;5.43;;;10.50;99.90;;;;;;5049955;28;20193;-65
2023/01/07 08:52:12;;;;;;;6.83;6.43;;;10.60;99.90;;;;;;5043024;28;20194;-64
2023/01/07 08:54:39;;;;;;;6.77;6.43;;;10.60;99.90;;;;;;5042472;28;20250;-64
2023/01/07 08:57:04;;;;;;;6.43;5.93;;;10.70;99.90;;;;;;5044269;28;20536;-64
2023/01/07 08:59:30;;;;;;;5.40;5.10;;;10.70;99.90;;;;;;5051144;28;20219;-63
2023/01/07 09:01:56;;;;;;;6.67;6.27;;;10.70;99.90;;;;;;5044582;28;20199;-64
2023/01/07 09:04:21;;;;;;;6.27;5.87;;;10.70;99.90;;;;;;5050368;28;20182;-65
2023/01/07 09:06:47;;;;;;;5.67;5.37;;;10.70;99.90;;;;;;5050943;28;20202;-64
2023/01/07 09:09:15;;;;;;;9.83;5.30;;;10.80;99.90;;;;;;5050743;28;20539;-64
2023/01/07 09:11:41;;;;;;;4.60;4.40;;;11.00;99.90;;;;;;5051608;28;20198;-64
2023/01/07 09:14:07;;;;;;;6.00;5.70;;;11.30;99.90;;;;;;5043203;28;20179;-64
2023/01/07 09:16:33;;;;;;;4.77;4.47;;;11.40;99.90;;;;;;5049723;28;20201;-65
2023/01/07 09:18:58;;;;;;;5.30;4.90;;;11.40;99.90;;;;;;5050187;28;20267;-64
2023/01/07 09:21:24;;;;;;;5.47;5.07;;;11.30;99.90;;;;;;5040073;28;20290;-65
2023/01/07 09:23:49;;;;;;;5.30;5.00;;;11.20;99.90;;;;;;5046928;28;20179;-64
2023/01/07 09:26:15;;;;;;;4.77;4.47;;;11.10;99.90;;;;;;5049022;28;20179;-64
2023/01/07 09:28:41;;;;;;;4.57;4.37;;;11.20;99.90;;;;;;5043510;28;20189;-64
2023/01/07 09:31:07;;;;;;;5.07;4.80;;;11.40;99.90;;;;;;5040635;28;20170;-64
2023/01/07 09:33:33;;;;;;;5.10;4.80;;;11.70;99.90;;;;;;5043902;28;20244;-65
2023/01/07 09:35:58;;;;;;;4.33;4.13;;;12.00;99.90;;;;;;5043290;28;20217;-64
2023/01/07 09:38:24;;;;;;;5.60;4.43;;;12.40;99.90;;;;;;5045034;28;20213;-65
2023/01/07 09:40:50;;;;;;;4.50;4.20;;;12.70;99.90;;;;;;5046574;28;20354;-64
2023/01/07 09:43:24;;;;;;;4.40;4.20;;;13.10;99.90;;;;;;5040175;28;20198;-64
2023/01/07 09:45:55;;;;;;;4.17;3.80;;;13.50;99.90;;;;;;5049878;28;20224;-64
2023/01/07 09:48:29;;;;;;;3.90;3.70;;;13.80;99.90;;;;;;5051578;28;20183;-64
2023/01/07 09:51:04;;;;;;;4.37;4.03;;;14.10;99.90;;;;;;5051849;28;20570;-64
2023/01/07 09:53:34;;;;;;;4.20;3.80;;;14.30;99.90;;;;;;5045216;28;20202;-64
2023/01/07 09:56:10;;;;;;;4.07;3.83;;;14.30;99.90;;;;;;5050180;28;20198;-64
2023/01/07 09:58:37;;;;;;;3.80;3.60;;;14.50;99.90;;;;;;5041103;28;20174;-65
2023/01/07 10:01:18;;;;;;;3.90;3.70;;;14.70;99.90;;;;;;5050373;28;20199;-64
2023/01/07 10:04:01;;;;;;;4.00;3.60;;;14.70;99.90;;;;;;5049529;28;20236;-64
2023/01/07 10:07:01;;;;;;;3.80;3.50;;;14.70;99.90;;;;;;5048727;28;20266;-63
2023/01/07 10:09:45;;;;;;;4.80;4.40;;;14.70;99.90;;;;;;5048217;28;20182;-65
2023/01/07 10:12:11;;;;;;;4.80;4.30;;;14.70;99.90;;;;;;5039298;28;20202;-65
2023/01/07 10:15:06;;;;;;;4.03;3.83;;;14.80;99.90;;;;;;5035327;28;21098;-64
2023/01/07 10:17:46;;;;;;;4.40;4.00;;;14.90;99.90;;;;;;5038995;28;20750;-65
2023/01/07 10:20:27;;;;;;;6.03;4.70;;;15.00;99.90;;;;;;5041845;28;20202;-65
2023/01/07 10:22:59;;;;;;;4.80;4.50;;;14.80;99.90;;;;;;5050865;28;20191;-65
2023/01/07 10:25:29;;;;;;;4.23;3.93;;;14.40;99.90;;;;;;5050382;28;20171;-64
2023/01/07 10:28:01;;;;;;;4.70;4.40;;;14.20;99.90;;;;;;5047086;28;20202;-64
2023/01/07 10:30:31;;;;;;;4.23;4.03;;;14.00;99.90;;;;;;5050324;28;20180;-64
2023/01/07 10:33:18;;;;;;;4.03;3.83;;;13.90;99.90;;;;;;5050866;28;20541;-64
2023/01/07 10:35:46;;;;;;;4.47;4.20;;;13.90;99.90;;;;;;5049203;28;20648;-65
2023/01/07 10:38:18;;;;;;;4.27;4.07;;;13.90;99.90;;;;;;5050820;28;20186;-65
2023/01/07 10:40:54;;;;;;;4.13;3.90;;;14.00;99.90;;;;;;5050530;28;20206;-65
2023/01/07 10:43:37;;;;;;;4.20;4.00;;;14.10;99.90;;;;;;5050840;28;20198;-65
2023/01/07 10:46:29;;;;;;;4.47;4.23;;;14.00;99.90;;;;;;5050963;28;20636;-64
2023/01/07 10:48:54;;;;;;;4.70;4.40;;;13.70;99.90;;;;;;5051135;28;20183;-64
2023/01/07 10:51:26;;;;;;;4.80;4.50;;;13.40;99.90;;;;;;5050590;28;20644;-64
2023/01/07 10:54:25;;;;;;;4.97;4.67;;;13.10;99.90;;;;;;5050653;28;20171;-64
2023/01/07 10:56:56;;;;;;;5.70;5.20;;;12.80;99.90;;;;;;5049188;28;20263;-65
2023/01/07 10:59:24;;;;;;;5.57;5.07;;;12.60;99.90;;;;;;5032820;28;20210;-64
2023/01/07 11:01:52;;;;;;;5.10;4.80;;;12.60;99.90;;;;;;5031076;28;20187;-64
2023/01/07 11:04:18;;;;;;;6.07;5.60;;;12.70;99.90;;;;;;5049543;28;20515;-64
2023/01/07 11:06:50;;;;;;;4.77;4.37;;;12.80;99.90;;;;;;5050465;28;20200;-64
2023/01/07 11:09:33;;;;;;;5.13;4.73;;;12.70;99.90;;;;;;5048472;28;20265;-64
2023/01/07 11:12:07;;;;;;;5.33;4.93;;;12.70;99.90;;;;;;5050459;28;20202;-65
2023/01/07 11:14:39;;;;;;;5.30;4.80;;;12.60;99.90;;;;;;5049731;28;20227;-65
2023/01/07 11:17:27;;;;;;;6.97;5.03;;;12.70;99.90;;;;;;5050539;28;20714;-64
2023/01/07 11:19:53;;;;;;;4.37;4.17;;;12.80;99.90;;;;;;5050124;28;20199;-64
2023/01/07 11:22:29;;;;;;;5.07;4.77;;;12.90;99.90;;;;;;5050310;28;20603;-65
2023/01/07 11:24:57;;;;;;;6.40;4.73;;;12.90;99.90;;;;;;5050331;28;20185;-64
2023/01/07 11:27:25;;;;;;;5.30;5.00;;;12.90;99.90;;;;;;5050103;28;20198;-65
2023/01/07 11:30:00;;;;;;;4.70;4.50;;;12.80;99.90;;;;;;5046317;28;20207;-64
2023/01/07 11:32:29;;;;;;;4.10;3.90;;;12.70;99.90;;;;;;5050396;28;20620;-64
2023/01/07 11:34:59;;;;;;;4.30;4.10;;;12.70;99.90;;;;;;5048943;28;20301;-65
2023/01/07 11:37:34;;;;;;;4.00;3.80;;;12.70;99.90;;;;;;5053585;28;20547;-64
2023/01/07 11:40:04;;;;;;;4.33;4.13;;;12.80;99.90;;;;;;5054001;28;20289;-64
2023/01/07 11:42:39;;;;;;;4.93;4.57;;;12.80;99.90;;;;;;5051919;28;20328;-65
2023/01/07 11:45:27;;;;;;;4.30;4.10;;;12.80;99.90;;;;;;5053804;28;20204;-65
2023/01/07 11:48:04;;;;;;;4.40;4.20;;;12.70;99.90;;;;;;5053447;28;20214;-64
2023/01/07 11:50:42;;;;;;;4.43;4.23;;;12.70;99.90;;;;;;5053369;28;20162;-64
2023/01/07 11:53:27;;;;;;;4.60;4.40;;;12.70;99.90;;;;;;5053885;28;20209;-65
2023/01/07 11:56:13;;;;;;;3.90;3.80;;;12.60;99.90;;;;;;5053365;28;20727;-65
2023/01/07 11:58:44;;;;;;;4.23;4.03;;;12.60;99.90;;;;;;5053640;28;20555;-65
2023/01/07 12:01:09;;;;;;;4.10;3.90;;;12.90;99.90;;;;;;5053470;28;20244;-64
2023/01/07 12:03:44;;;;;;;4.10;3.80;;;13.20;99.90;;;;;;5053395;28;20198;-64
2023/01/07 12:06:29;;;;;;;3.70;3.50;;;13.50;99.90;;;;;;5053713;28;20204;-65
2023/01/07 12:09:08;;;;;;;3.70;3.50;;;13.40;99.90;;;;;;5053176;28;20269;-64
2023/01/07 12:11:38;;;;;;;4.10;3.90;;;13.30;99.90;;;;;;5052990;28;20175;-64
2023/01/07 12:14:17;;;;;;;3.57;3.47;;;13.20;99.90;;;;;;5053166;28;20167;-64
2023/01/07 12:16:44;;;;;;;3.60;3.50;;;13.00;99.90;;;;;;5053409;28;20538;-63
2023/01/07 12:19:53;;;;;;;4.30;4.00;;;12.80;99.90;;;;;;5052836;28;20609;-64
2023/01/07 12:22:50;;;;;;;3.83;3.63;;;12.70;99.90;;;;;;5038749;28;20255;-64
2023/01/07 12:25:27;;;;;;;4.13;3.83;;;13.10;99.90;;;;;;5053271;28;20198;-63
2023/01/07 12:28:11;;;;;;;3.60;3.50;;;13.50;99.90;;;;;;5038122;28;20254;-64
2023/01/07 12:30:46;;;;;;;4.17;3.93;;;13.90;99.90;;;;;;5051288;28;20304;-64
2023/01/07 12:33:17;;;;;;;4.00;3.80;;;14.10;99.90;;;;;;5052960;28;20214;-64
2023/01/07 12:35:44;;;;;;;4.20;4.00;;;14.00;99.90;;;;;;5050116;28;20209;-64
2023/01/07 12:38:47;;;;;;;4.30;4.10;;;14.00;99.90;;;;;;5052792;28;20171;-63
2023/01/07 12:41:29;;;;;;;4.30;4.10;;;13.90;99.90;;;;;;5043754;28;20210;-64
2023/01/07 12:44:03;;;;;;;4.67;4.47;;;13.70;99.90;;;;;;5052703;28;20171;-64
2023/01/07 12:46:57;;;;;;;4.40;4.20;;;13.90;99.90;;;;;;5051785;28;20179;-64
2023/01/07 12:49:33;;;;;;;4.07;3.87;;;14.10;99.90;;;;;;5045169;28;20195;-64
2023/01/07 12:52:29;;;;;;;4.00;3.80;;;14.10;99.90;;;;;;5052640;28;20198;-64
2023/01/07 12:55:00;;;;;;;4.03;3.83;;;14.20;99.90;;;;;;5052501;28;20174;-63
2023/01/07 12:57:39;;;;;;;4.00;3.80;;;14.10;99.90;;;;;;5052560;28;20175;-64
2023/01/07 13:00:24;;;;;;;4.00;3.80;;;14.30;99.90;;;;;;5050887;28;20210;-63
2023/01/07 13:02:54;;;;;;;4.70;4.50;;;14.40;99.90;;;;;;5051061;28;20222;-64
2023/01/07 13:05:23;;;;;;;4.53;4.27;;;14.50;99.90;;;;;;5052662;28;20171;-64
2023/01/07 13:07:58;;;;;;;4.20;3.80;;;14.60;99.90;;;;;;5052153;28;20187;-64